Shannon, IL (61078)

2:27 PM CDT on July 06, 2015 (GMT -0500)
Carroll County | | Change Station
CLOSE
Current Station
Personal Weather Station
Location: Lanark, IL
Elevation: 879 ft
Nearby Weather Stations

Elev 879 ft 42.10 °N, 89.83 °W | Updated 4 seconds ago

Thunderstorm
Thunderstorm
75.4 °F
Feels Like 75 °F
N
0.0
Wind Variable Wind from South
Gusts 1.1 mph

Today
High -- | Low -- °F
--% Chance of Precip.
Yesterday
High -- | Low -- °F
Precip. -- in
5:29 AM 8:37 PM
Waning Gibbous, 73% visible
Pressure 29.91 in
Visibility 10.0 miles
Clouds Scattered Clouds 5000 ft
Scattered Clouds 7500 ft
Mostly Cloudy 9000 ft
Heat Index 75 °F
Dew Point 71 °F
Humidity 86%
Rainfall 0.04 in
Snow Depth Not available.
UV 6 out of 12
Pollen 4.90 out of 12
Air Quality Not available.
Flu Activity Not available.
METAR KFEP 061915Z AUTO 22006KT 10SM SCT050 SCT075 BKN090 23/21 A2991 RMK AO2 T02320210

More Conditions Fewer Conditions

Pressure 29.91 in
Visibility 10.0 miles
Clouds Scattered Clouds 5000 ft
Scattered Clouds 7500 ft
Mostly Cloudy 9000 ft
Heat Index 75 °F
Dew Point 71 °F
Humidity 86%
Rainfall 0.04 in
Snow Depth Not available.
UV 6 out of 12
Pollen 4.90 out of 12
Air Quality Not available.
Flu Activity Not available.
METAR KFEP 061915Z AUTO 22006KT 10SM SCT050 SCT075 BKN090 23/21 A2991 RMK AO2 T02320210

More Conditions Fewer Conditions

10-Day Weather Forecast

×

Almanac

Astronomy

Jul. 06, 2015 Rise Set
Actual Time
Civil Twilight
Nautical Twilight
Astronomical Twilight
Moon
Length of Visible Light
Length of Day
Tomorrow will be .
, % of the Moon is Illuminated

Today's Extremes

State Highs State Lows

Community

WunderPhotos

Upload Photos

1,835,621 photos uploaded!

WunderBlogs® & News

Nearby

Air Quality

  Air Quality AQ Index Pollutant
Not available.

Snow Depth

Station Depth Elevation

Earthquake Activity

City Distance Mag. Time & Date
Minimum magnitude displayed is 2.5.

Coastal Water Temperatures

Place Temperature

Stations

Nearby Weather Stations

Station Location Temp. Windchill Dew Point Humidity Wind Precip. Elev Updated Type